NY/NJ Local METAR Reports

 

KNYC - NYC/Central Park, NY, USA
Distance from Hoboken: NE 4mi, 7km
Updated: 07/22/2019 11:59pm
Light rain, Mostly cloudy
Light rain, Mostly cloudy
 Wind from varies
Wind: varies 7 mph , 11 km/h
Temperature: 73°F , 23°C
Dew Point: 72°F , 22°C
Humidity: 94%
Barometer: 29.80 inHg , 1009.1 hPa
Summary: Light rain
Clouds: Mostly cloudy
Visibility: 7 miles , 11 km
Cloud details: Mostly cloudy 1200 ft
Mostly cloudy 11000 ft
2019/07/23 03:59 KNYC 230359Z AUTO VRB06KT 7SM -RA BKN012 BKN110 23/22 A2980 RMK AO2 P0000 T02330222 $
KEWR - Newark, NJ, USA
Distance from Hoboken: WSW 8mi, 13km
Updated: 07/23/2019 12:06am
Light rain, Overcast
Light rain, Overcast
 Wind from WSW
Wind: WSW 9 mph , 15 km/h
Temperature: 75°F , 24°C
Dew Point: 73°F , 23°C
Humidity: 94%
Barometer: 29.77 inHg , 1008.1 hPa
Summary: Light rain
Clouds: Overcast
Visibility: 10 miles , 16 km
Cloud details: Few Clouds 800 ft
Partly cloudy 2100 ft
Mostly cloudy 8500 ft
Overcast 13000 ft
2019/07/23 04:06 KEWR 230406Z 24008KT 10SM -RA FEW008 SCT021 BKN085 OVC130 24/23 A2977 RMK AO2 P0000 T02390228 $
 
KLGA - NYC/La Guardia, NY, USA
Distance from Hoboken: ENE 8mi, 13km
Updated: 07/23/2019 12:45am
Light rain, Overcast
Light rain, Overcast
 Wind from SW
Wind: SW 6 mph , 9 km/h
Temperature: 75°F , 24°C
Dew Point: 72°F , 22°C
Humidity: 89%
Barometer: 29.75 inHg , 1007.5 hPa
Summary: Light rain
Clouds: Overcast
Visibility: 9 miles , 14 km
Cloud details: Few Clouds 2000 ft
Partly cloudy 6500 ft
Mostly cloudy 11000 ft
Overcast 13000 ft
2019/07/23 04:45 KLGA 230445Z 22005KT 9SM -RA FEW020 SCT065 BKN110 OVC130 24/22 A2975 RMK AO2 RAB0356 CIG 028 R22 SW P0003 $
KTEB - Teterboro, NJ, USA
Distance from Hoboken: N 9mi, 14km
Updated: 07/22/2019 11:51pm
Light rain, Overcast
Light rain, Overcast
 Wind from calm
Wind: Calm
Temperature: 73°F , 23°C
Dew Point: 72°F , 22°C
Humidity: 94%
Barometer: 29.76 inHg , 1007.8 hPa
Summary: Light rain
Clouds: Overcast
Visibility: 8 miles , 13 km
Cloud details: Overcast 1000 ft
2019/07/23 03:51 KTEB 230351Z 00000KT 8SM -RA OVC010 23/22 A2976 RMK AO2 RAB07 SLP078 P0000 T02330217
 
KJFK - NYC/Jfk Arpt, NY, USA
Distance from Hoboken: ESE 16mi, 25km
Updated: 07/23/2019 12:42am
Overcast
Overcast
 Wind from WSW
Wind: WSW 9 mph , 15 km/h
Temperature: 73°F , 23°C
Dew Point: 73°F , 23°C
Humidity: 100%
Barometer: 29.76 inHg , 1007.8 hPa
Clouds: Overcast
Visibility: 10 miles , 16 km
Cloud details: Partly cloudy 1200 ft
Overcast 16000 ft
2019/07/23 04:42 KJFK 230442Z 25008KT 10SM SCT012 OVC160 23/23 A2976 RMK AO2 RAE37 P0001 T02330233 $
KCDW - Caldwell, NJ, USA
Distance from Hoboken: NW 16mi, 26km
Updated: 07/22/2019 11:53pm
Overcast
Overcast
 Wind from calm
Wind: Calm
Temperature: 73°F , 23°C
Dew Point: 72°F , 22°C
Humidity: 94%
Barometer: 29.79 inHg , 1008.8 hPa
Clouds: Overcast
Visibility: 10 miles , 16 km
Cloud details: Overcast 600 ft
2019/07/23 03:53 KCDW 230353Z AUTO 00000KT 10SM OVC006 23/22 A2979 RMK AO2 RAE49 CIG 004V008 SLP090 P0006 T02280222
 
KMMU - Morristown Muni, NJ, USA
Distance from Hoboken: W 20mi, 33km
Updated: 07/23/2019 12:35am
Light rain, Overcast
Light rain, Overcast
 Wind from calm
Wind: Calm
Temperature: 72°F , 22°C
Dew Point: 72°F , 22°C
Humidity: 100%
Barometer: 29.76 inHg , 1007.8 hPa
Summary: Light rain
Clouds: Overcast
Visibility: 10 miles , 16 km
Cloud details: Mostly cloudy 700 ft
Mostly cloudy 2400 ft
Overcast 12000 ft
2019/07/23 04:35 KMMU 230435Z AUTO 00000KT 10SM -RA BKN007 BKN024 OVC120 22/22 A2976 RMK AO2 P0001
KHPN - White Plains, NY, USA
Distance from Hoboken: NE 28mi, 46km
Updated: 07/22/2019 11:56pm
Light rain, Mist, Overcast
Light rain, Mist, Overcast
 Wind from calm
Wind: Calm
Temperature: 72°F , 22°C
Dew Point: 72°F , 22°C
Humidity: 100%
Barometer: 29.78 inHg , 1008.5 hPa
Summary: Light rain, Mist
Clouds: Overcast
Visibility: 1 1/2 miles , 2.4 km
Cloud details: Mostly cloudy 200 ft
Overcast 700 ft
2019/07/23 03:56 KHPN 230356Z 00000KT 1 1/2SM -RA BR BKN002 OVC007 22/22 A2978 RMK AO2 SLP078 P0002 T02170217
 
KFRG - Farmingdale, NY, USA
Distance from Hoboken: E 32mi, 52km
Updated: 07/23/2019 12:40am
Light rain, Overcast
Light rain, Overcast
 Wind from SW
Wind: SW 3 mph , 6 km/h
Temperature: 73°F , 23°C
Dew Point: 72°F , 22°C
Humidity: 94%
Barometer: 29.77 inHg , 1008.1 hPa
Summary: Light rain
Clouds: Overcast
Visibility: 10 miles , 16 km
Cloud details: Mostly cloudy 900 ft
Overcast 1400 ft
2019/07/23 04:40 KFRG 230440Z AUTO 23003KT 10SM -RA BKN009 OVC014 23/22 A2977 RMK AO2 RAB37 CIG 006V012 P0000 T02330222
KSMQ - Somerville, NJ, USA
Distance from Hoboken: WSW 34mi, 55km
Updated: 07/22/2019 11:53pm
Mostly cloudy
Mostly cloudy
 Wind from calm
Wind: Calm
Temperature: 73°F , 23°C
Dew Point: 72°F , 22°C
Humidity: 94%
Barometer: 29.77 inHg , 1008.1 hPa
Clouds: Mostly cloudy
Visibility: 9 miles , 14 km
Cloud details: Few Clouds 700 ft
Partly cloudy 5500 ft
Mostly cloudy 7000 ft
2019/07/23 03:53 KSMQ 230353Z AUTO 00000KT 9SM FEW007 SCT055 BKN070 23/22 A2977 RMK AO2 SLP078 T02280222
 
KBLM - Belmar/Farmdale, NJ, USA
Distance from Hoboken: S 40mi, 64km
Updated: 07/22/2019 11:56pm
Mostly cloudy
Mostly cloudy
 Wind from WSW
Wind: WSW 3 mph , 6 km/h
Temperature: 72°F , 22°C
Dew Point: 72°F , 22°C
Humidity: 100%
Barometer: 29.79 inHg , 1008.8 hPa
Clouds: Mostly cloudy
Visibility: 10 miles , 16 km
Cloud details: Partly cloudy 8000 ft
Mostly cloudy 9500 ft
2019/07/23 03:56 KBLM 230356Z AUTO 25003KT 10SM SCT080 BKN095 22/22 A2979 RMK AO2 LTG DSNT S SLP086 T02220217
K12N - Andover, NJ, USA
Distance from Hoboken: WNW 41mi, 67km
Updated: 07/22/2019 11:54pm

 Wind from N
Wind: N 6 mph , 9 km/h
Temperature: 66°F , 19°C
Dew Point: 64°F , 18°C
Humidity: 94%
Barometer: 29.81 inHg , 1009.5 hPa
2019/07/23 03:54 K12N 230354Z AUTO 35005KT 19/18 A2981 RMK AO1 SLP086 P0011 T01890183
 
KFWN - Sussex, NJ, USA
Distance from Hoboken: NW 45mi, 72km
Updated: 07/23/2019 12:12am
Light rain, Mist, Overcast
Light rain, Mist, Overcast
 Wind from ENE
Wind: ENE 5 mph , 7 km/h
Temperature: 66°F , 19°C
Dew Point: 64°F , 18°C
Humidity: 94%
Barometer: 29.81 inHg , 1009.5 hPa
Summary: Light rain, Mist
Clouds: Overcast
Visibility: 6 miles , 10 km
Cloud details: Mostly cloudy 1000 ft
Overcast 1400 ft
2019/07/23 04:12 KFWN 230412Z AUTO 06004KT 6SM -RA BR BKN010 OVC014 19/18 A2981 RMK AO2 CIG 007V013 P0001 T01940178 $
KISP - Islip, NY, USA
Distance from Hoboken: E 49mi, 79km
Updated: 07/23/2019 12:05am
Partly cloudy
Partly cloudy
 Wind from WSW
Wind: WSW 6 mph , 9 km/h
Temperature: 73°F , 23°C
Dew Point: 73°F , 23°C
Humidity: 100%
Barometer: 29.76 inHg , 1007.8 hPa
Clouds: Partly cloudy
Visibility: 10 miles , 16 km
Cloud details: Partly cloudy 1300 ft
2019/07/23 04:05 KISP 230405Z AUTO 24005KT 10SM SCT013 23/23 A2976 RMK AO2 T02330233 $